createdAt,value
2018-03-24T05:01:01.452Z,14.73
2018-03-24T05:03:28.226Z,9.87
2018-03-24T05:05:55.015Z,15.30
2018-03-24T05:08:21.826Z,11.00
2018-03-24T05:10:48.583Z,15.60
2018-03-24T05:13:15.354Z,14.33
2018-03-24T05:15:42.130Z,14.77
2018-03-24T05:18:08.907Z,13.10
2018-03-24T05:20:35.716Z,10.10
2018-03-24T05:23:02.512Z,15.00
2018-03-24T05:25:29.282Z,17.83
2018-03-24T05:27:56.097Z,12.50
2018-03-24T05:30:22.863Z,10.00
2018-03-24T05:32:49.680Z,12.73
2018-03-24T05:35:16.431Z,8.10
2018-03-24T05:37:43.240Z,14.00
2018-03-24T05:40:09.984Z,18.10
2018-03-24T05:42:36.748Z,13.67
2018-03-24T05:45:03.548Z,10.70
2018-03-24T05:47:30.334Z,12.00
2018-03-24T05:49:57.099Z,15.60
2018-03-24T05:52:23.912Z,10.40
2018-03-24T05:54:50.704Z,11.67
2018-03-24T05:57:17.499Z,14.20
2018-03-24T05:59:44.263Z,12.43
2018-03-24T06:02:11.034Z,14.93
2018-03-24T06:04:37.806Z,11.90
2018-03-24T06:07:04.574Z,22.00
2018-03-24T06:09:31.363Z,13.33
2018-03-24T06:11:58.156Z,11.63
2018-03-24T06:14:24.964Z,12.67
2018-03-24T06:16:51.729Z,16.77
2018-03-24T06:19:18.562Z,13.40
2018-03-24T06:21:45.414Z,14.17
2018-03-24T06:24:12.182Z,13.10
2018-03-24T06:26:38.953Z,13.33
2018-03-24T06:29:05.737Z,14.77
2018-03-24T06:31:47.386Z,13.20
2018-03-24T06:34:14.201Z,14.73
2018-03-24T06:36:52.735Z,13.37
2018-03-24T06:39:19.560Z,17.23
2018-03-24T06:41:46.363Z,13.60
2018-03-24T06:44:13.136Z,14.83
2018-03-24T06:46:39.915Z,15.50
2018-03-24T06:49:06.675Z,13.77
2018-03-24T06:51:33.471Z,14.20
2018-03-24T06:54:00.212Z,14.30
2018-03-24T06:56:27.080Z,16.97
2018-03-24T06:58:53.816Z,16.80
2018-03-24T07:01:20.601Z,13.00
2018-03-24T07:03:47.465Z,13.50
2018-03-24T07:06:14.280Z,19.00
2018-03-24T07:08:41.048Z,15.47
2018-03-24T07:11:07.836Z,12.60
2018-03-24T07:13:34.616Z,18.00
2018-03-24T07:16:01.423Z,13.23
2018-03-24T07:18:28.197Z,12.20
2018-03-24T07:20:55.020Z,16.93
2018-03-24T07:23:21.811Z,22.17
2018-03-24T07:25:48.655Z,13.10
2018-03-24T07:28:15.490Z,18.80
2018-03-24T07:30:42.336Z,17.33
2018-03-24T07:33:09.107Z,18.53
2018-03-24T07:35:36.004Z,18.10
2018-03-24T07:38:02.846Z,21.20
2018-03-24T07:40:29.658Z,15.60
2018-03-24T07:42:56.454Z,19.57
2018-03-24T07:45:23.235Z,19.43
2018-03-24T07:47:50.042Z,14.87
2018-03-24T07:50:16.815Z,21.10
2018-03-24T07:52:43.608Z,18.80
2018-03-24T07:55:10.362Z,15.80
2018-03-24T07:57:37.131Z,17.97
2018-03-24T08:00:03.922Z,14.50
2018-03-24T08:02:30.745Z,18.23
2018-03-24T08:04:57.532Z,18.07
2018-03-24T08:07:24.325Z,20.13
2018-03-24T08:09:51.107Z,19.40
2018-03-24T08:12:17.887Z,19.80
2018-03-24T08:14:44.650Z,23.97
2018-03-24T08:17:11.471Z,19.13
2018-03-24T08:19:38.258Z,28.63
2018-03-24T08:22:05.060Z,20.23
2018-03-24T08:24:31.925Z,18.33
2018-03-24T08:26:58.740Z,18.30
2018-03-24T08:29:25.555Z,23.40
2018-03-24T08:31:52.320Z,18.87
2018-03-24T08:34:19.085Z,24.60
2018-03-24T08:36:45.864Z,20.27
2018-03-24T08:39:12.647Z,24.40
2018-03-24T08:41:39.478Z,20.50
2018-03-24T08:44:06.265Z,16.00
2018-03-24T08:46:33.068Z,19.77
2018-03-24T08:48:59.862Z,22.17
2018-03-24T08:51:26.628Z,24.40
2018-03-24T08:53:53.477Z,27.07
2018-03-24T08:56:20.290Z,21.10
2018-03-24T08:58:47.052Z,24.57
2018-03-24T09:01:13.831Z,25.50
2018-03-24T09:03:40.628Z,24.10
2018-03-24T09:06:07.484Z,22.43
2018-03-24T09:08:34.290Z,21.47
2018-03-24T09:11:01.060Z,20.33
2018-03-24T09:13:27.866Z,23.00
2018-03-24T09:15:54.656Z,32.73
2018-03-24T09:18:21.483Z,20.70
2018-03-24T09:20:48.240Z,23.87
2018-03-24T09:23:15.001Z,26.20
2018-03-24T09:25:41.804Z,24.80
2018-03-24T09:28:08.583Z,23.23
2018-03-24T09:30:35.401Z,24.60
2018-03-24T09:33:02.162Z,25.60
2018-03-24T09:35:28.971Z,28.30
2018-03-24T09:37:55.743Z,24.77
2018-03-24T09:40:22.527Z,24.90
2018-03-24T09:42:49.398Z,18.63
2018-03-24T09:45:16.204Z,23.50
2018-03-24T09:47:43.002Z,28.93
2018-03-24T09:50:09.791Z,23.80
2018-03-24T09:52:36.560Z,24.00
2018-03-24T09:55:03.407Z,22.97
2018-03-24T09:57:30.191Z,25.87
2018-03-24T09:59:56.992Z,25.80
2018-03-24T10:02:23.871Z,26.60
2018-03-24T10:04:50.690Z,27.50
2018-03-24T10:07:17.524Z,25.03
2018-03-24T10:09:44.343Z,22.90
2018-03-24T10:12:11.103Z,28.93
2018-03-24T10:14:37.868Z,33.57
2018-03-24T10:17:04.674Z,24.70
2018-03-24T10:19:31.460Z,27.40
2018-03-24T10:22:16.969Z,28.97
2018-03-24T10:24:43.753Z,22.80
2018-03-24T10:27:10.583Z,26.40
2018-03-24T10:29:37.346Z,27.83
2018-03-24T10:32:04.183Z,30.13
2018-03-24T10:34:31.006Z,29.27
2018-03-24T10:36:57.767Z,32.03
2018-03-24T10:39:24.609Z,29.87
2018-03-24T10:41:51.859Z,29.80
2018-03-24T10:44:18.632Z,31.13
2018-03-24T10:46:45.463Z,37.67
2018-03-24T10:49:12.245Z,31.97
2018-03-24T10:51:39.035Z,31.87
2018-03-24T10:54:05.815Z,29.73
2018-03-24T10:56:32.587Z,45.20
2018-03-24T10:58:59.412Z,35.60
2018-03-24T11:01:26.195Z,34.57
2018-03-24T11:03:53.271Z,34.93
2018-03-24T11:06:20.043Z,34.03
2018-03-24T11:08:46.804Z,35.53
2018-03-24T11:11:13.652Z,35.80
2018-03-24T11:13:40.419Z,34.10
2018-03-24T11:16:07.257Z,36.47
2018-03-24T11:18:34.031Z,35.80
2018-03-24T11:21:00.843Z,39.73
2018-03-24T11:23:27.646Z,37.10
2018-03-24T11:25:54.438Z,46.57
2018-03-24T11:28:21.217Z,38.90
2018-03-24T11:30:48.127Z,40.63
2018-03-24T11:33:14.942Z,35.67
2018-03-24T11:35:41.748Z,45.87
2018-03-24T11:38:08.547Z,38.87
2018-03-24T11:40:35.348Z,42.67
2018-03-24T11:43:02.114Z,40.50
2018-03-24T11:45:28.917Z,44.87
2018-03-24T11:48:05.657Z,34.53
2018-03-24T11:50:32.442Z,41.27
2018-03-24T11:52:59.230Z,41.03
2018-03-24T11:55:26.046Z,40.03
2018-03-24T11:57:52.800Z,44.53
2018-03-24T12:00:19.620Z,42.10
2018-03-24T12:02:46.396Z,37.77
2018-03-24T12:05:13.167Z,44.13
2018-03-24T12:07:39.944Z,44.50
2018-03-24T12:10:07.088Z,42.97
2018-03-24T12:12:33.905Z,48.07
2018-03-24T12:15:00.687Z,46.83
2018-03-24T12:17:27.568Z,38.10
2018-03-24T12:19:54.351Z,35.73
2018-03-24T12:22:21.124Z,45.43
2018-03-24T12:24:47.946Z,45.83
2018-03-24T12:27:14.750Z,46.43
2018-03-24T12:29:41.563Z,44.60
2018-03-24T12:32:08.441Z,47.13
2018-03-24T12:34:35.480Z,48.30
2018-03-24T12:37:02.281Z,51.70
2018-03-24T12:39:29.036Z,40.93
2018-03-24T12:41:55.852Z,37.63
2018-03-24T12:44:22.624Z,39.30
2018-03-24T12:46:49.411Z,47.63
2018-03-24T12:49:16.270Z,41.97
2018-03-24T12:51:43.062Z,40.20
2018-03-24T12:54:09.824Z,42.60
2018-03-24T12:56:36.610Z,36.03
2018-03-24T12:59:03.403Z,39.00
2018-03-24T13:01:30.292Z,35.27
2018-03-24T13:03:57.118Z,38.00
2018-03-24T13:06:23.895Z,35.33
2018-03-24T13:08:50.706Z,34.27
2018-03-24T13:11:17.531Z,32.60
2018-03-24T13:13:44.359Z,42.50
2018-03-24T13:16:11.152Z,33.70
2018-03-24T13:18:37.936Z,37.23
2018-03-24T13:21:04.760Z,38.87
2018-03-24T13:23:31.582Z,39.40
2018-03-24T13:25:58.384Z,36.30
2018-03-24T13:28:25.159Z,38.03
2018-03-24T13:30:52.132Z,36.80
2018-03-24T13:33:19.229Z,51.83
2018-03-24T13:35:46.068Z,40.70
2018-03-24T13:38:12.919Z,29.80
2018-03-24T13:40:39.730Z,33.63
2018-03-24T13:43:06.543Z,35.67
2018-03-24T13:45:33.344Z,38.33
2018-03-24T13:48:00.237Z,36.80
2018-03-24T13:50:27.064Z,35.50
2018-03-24T13:52:53.847Z,33.33
2018-03-24T13:55:20.620Z,36.13
2018-03-24T13:57:47.408Z,34.50
2018-03-24T14:00:15.999Z,32.50
2018-03-24T14:02:42.821Z,30.67
2018-03-24T14:05:09.656Z,34.53
2018-03-24T14:07:36.400Z,32.43
2018-03-24T14:10:04.071Z,34.07
2018-03-24T14:12:30.848Z,35.60
2018-03-24T14:14:57.687Z,36.00
2018-03-24T14:17:24.466Z,33.80
2018-03-24T14:19:51.232Z,37.17
2018-03-24T14:22:18.044Z,39.67
2018-03-24T14:24:44.823Z,31.67
2018-03-24T14:27:11.637Z,35.67
2018-03-24T14:29:38.442Z,39.60
2018-03-24T14:32:05.230Z,37.50
2018-03-24T14:34:32.173Z,39.90
2018-03-24T14:36:59.030Z,36.07
2018-03-24T14:39:25.834Z,39.80
2018-03-24T14:41:52.616Z,38.13
2018-03-24T14:44:19.395Z,39.33
2018-03-24T14:46:46.349Z,33.10
2018-03-24T14:49:13.144Z,37.17
2018-03-24T14:51:39.973Z,38.40
2018-03-24T14:54:06.797Z,31.77
2018-03-24T14:56:33.547Z,39.30
2018-03-24T14:59:00.319Z,31.77
2018-03-24T15:01:27.155Z,35.03
2018-03-24T15:03:54.024Z,33.17
2018-03-24T15:06:20.771Z,37.77
2018-03-24T15:08:47.583Z,33.40
2018-03-24T15:11:14.364Z,36.30
2018-03-24T15:13:41.129Z,33.60
2018-03-24T15:16:07.943Z,39.97
2018-03-24T15:18:34.717Z,37.37
2018-03-24T15:21:01.526Z,34.27
2018-03-24T15:23:28.307Z,34.50
2018-03-24T15:25:55.139Z,37.57
2018-03-24T15:28:21.985Z,37.80
2018-03-24T15:30:54.487Z,30.40
2018-03-24T15:33:27.228Z,36.57
2018-03-24T15:36:00.057Z,33.77
2018-03-24T15:38:26.861Z,33.50
2018-03-24T15:40:53.703Z,51.27
2018-03-24T15:43:20.509Z,38.23
2018-03-24T15:45:47.319Z,40.90
2018-03-24T15:48:14.133Z,40.80
2018-03-24T15:50:40.918Z,32.13
2018-03-24T15:53:07.714Z,46.40
2018-03-24T15:55:34.494Z,34.83
2018-03-24T15:58:01.299Z,38.57
2018-03-24T16:00:28.140Z,29.80
2018-03-24T16:02:54.917Z,43.90
2018-03-24T16:05:21.723Z,37.23
2018-03-24T16:07:48.530Z,39.87
2018-03-24T16:10:15.332Z,33.60
2018-03-24T16:12:42.249Z,35.57
2018-03-24T16:15:09.027Z,37.53
2018-03-24T16:17:35.792Z,38.70
2018-03-24T16:20:02.577Z,43.17
2018-03-24T16:22:29.394Z,46.40
2018-03-24T16:24:56.159Z,47.33
2018-03-24T16:27:22.944Z,44.50
2018-03-24T16:29:49.829Z,45.57
2018-03-24T16:32:16.613Z,53.43
2018-03-24T16:34:43.428Z,40.93
2018-03-24T16:37:10.192Z,45.27
2018-03-24T16:39:36.968Z,42.83
2018-03-24T16:42:03.757Z,36.20
2018-03-24T16:44:30.538Z,45.13
2018-03-24T16:46:57.347Z,41.03
2018-03-24T16:49:24.129Z,39.50
2018-03-24T16:51:50.910Z,41.23
2018-03-24T16:54:17.712Z,44.70
2018-03-24T16:56:44.507Z,43.13
2018-03-24T16:59:11.382Z,40.33
2018-03-24T17:01:38.178Z,44.70
2018-03-24T17:04:04.980Z,41.73
2018-03-24T17:06:31.783Z,46.33
2018-03-24T17:08:58.559Z,37.30
2018-03-24T17:11:25.356Z,45.30
2018-03-24T17:13:52.149Z,41.73
2018-03-24T17:16:18.945Z,54.93
2018-03-24T17:18:45.731Z,41.67
2018-03-24T17:21:12.511Z,37.57
2018-03-24T17:23:39.328Z,44.77
2018-03-24T17:26:06.112Z,49.30
2018-03-24T17:28:32.856Z,39.30
2018-03-24T17:30:59.646Z,45.57
2018-03-24T17:33:26.493Z,51.30
2018-03-24T17:35:53.336Z,52.07
2018-03-24T17:38:20.121Z,51.93
2018-03-24T17:40:46.922Z,51.73
2018-03-24T17:43:13.700Z,46.30
2018-03-24T17:45:40.504Z,48.33
2018-03-24T17:48:07.328Z,45.50
2018-03-24T17:50:34.118Z,45.63
2018-03-24T17:53:00.876Z,63.57
2018-03-24T17:55:27.668Z,45.93
2018-03-24T17:57:54.452Z,48.10
2018-03-24T18:00:21.259Z,42.00
2018-03-24T18:02:48.021Z,43.63
2018-03-24T18:05:14.812Z,41.80
2018-03-24T18:07:41.632Z,54.20
2018-03-24T18:10:08.445Z,44.83
2018-03-24T18:12:35.321Z,42.03
2018-03-24T18:15:02.382Z,51.30
2018-03-24T18:17:29.199Z,49.27
2018-03-24T18:19:55.980Z,49.60
2018-03-24T18:22:22.777Z,42.07
2018-03-24T18:24:49.607Z,48.87
2018-03-24T18:27:16.483Z,48.20
2018-03-24T18:29:43.245Z,51.23
2018-03-24T18:32:10.031Z,49.07
2018-03-24T18:34:36.870Z,49.60
2018-03-24T18:37:03.719Z,48.70
2018-03-24T18:39:31.219Z,44.50
2018-03-24T18:41:57.976Z,57.33
2018-03-24T18:44:24.759Z,49.10
2018-03-24T18:46:51.565Z,64.40
2018-03-24T18:49:18.446Z,42.60
2018-03-24T18:51:45.219Z,49.13
2018-03-24T18:54:12.151Z,49.90
2018-03-24T18:56:38.950Z,39.67
2018-03-24T18:59:05.789Z,49.30
2018-03-24T19:01:32.628Z,55.80
2018-03-24T19:03:59.393Z,50.20
2018-03-24T19:06:26.223Z,53.17
2018-03-24T19:08:53.034Z,49.50
2018-03-24T19:11:19.827Z,53.37
2018-03-24T19:13:46.644Z,50.87
2018-03-24T19:16:13.434Z,43.13
2018-03-24T19:18:40.202Z,45.57
2018-03-24T19:21:07.013Z,45.03
2018-03-24T19:23:33.780Z,47.03
2018-03-24T19:26:00.574Z,48.20
2018-03-24T19:28:27.400Z,50.53
2018-03-24T19:30:54.163Z,49.40
2018-03-24T19:33:20.945Z,48.43
2018-03-24T19:35:47.706Z,43.10
2018-03-24T19:38:14.557Z,54.97
2018-03-24T19:40:41.328Z,48.90
2018-03-24T19:43:08.115Z,57.10
2018-03-24T19:45:34.915Z,48.67
2018-03-24T19:48:01.726Z,46.90
2018-03-24T19:50:28.556Z,52.23
2018-03-24T19:52:55.327Z,49.33
2018-03-24T19:55:22.167Z,52.03
2018-03-24T19:57:48.961Z,47.27
2018-03-24T20:00:15.776Z,47.07
2018-03-24T20:02:42.611Z,54.70
2018-03-24T20:05:09.428Z,52.70
2018-03-24T20:07:36.222Z,45.97
2018-03-24T20:10:03.060Z,48.90
2018-03-24T20:12:29.856Z,49.00
2018-03-24T20:14:56.675Z,40.93
2018-03-24T20:17:23.443Z,45.97
2018-03-24T20:19:50.281Z,41.53
2018-03-24T20:22:17.087Z,41.10
2018-03-24T20:24:43.891Z,39.57
2018-03-24T20:27:10.734Z,46.00
2018-03-24T20:29:37.647Z,49.03
2018-03-24T20:32:04.443Z,44.43
2018-03-24T20:34:31.218Z,50.60
2018-03-24T20:36:58.016Z,48.90
2018-03-24T20:39:24.868Z,60.23
2018-03-24T20:41:51.673Z,52.77
2018-03-24T20:44:18.429Z,37.87
2018-03-24T20:46:45.549Z,47.10
2018-03-24T20:49:12.363Z,48.47
2018-03-24T20:51:39.199Z,49.03
2018-03-24T20:54:06.030Z,46.57
2018-03-24T20:56:32.814Z,43.27
2018-03-24T20:58:59.621Z,44.73
2018-03-24T21:01:26.520Z,48.37
2018-03-24T21:03:53.368Z,44.80
2018-03-24T21:06:20.182Z,51.90
2018-03-24T21:08:46.984Z,45.63
2018-03-24T21:11:13.787Z,44.17
2018-03-24T21:13:40.609Z,43.00
2018-03-24T21:16:07.460Z,48.03
2018-03-24T21:18:34.396Z,44.23
2018-03-24T21:21:01.195Z,36.93
2018-03-24T21:23:27.975Z,43.47
2018-03-24T21:25:54.752Z,44.07
2018-03-24T21:28:21.577Z,44.30
2018-03-24T21:30:48.367Z,42.60
2018-03-24T21:33:15.176Z,34.53
2018-03-24T21:35:42.300Z,40.03
2018-03-24T21:38:09.138Z,37.30
2018-03-24T21:40:35.969Z,36.50
2018-03-24T21:43:02.759Z,37.40
2018-03-24T21:45:29.570Z,35.03
2018-03-24T21:47:56.377Z,38.70
2018-03-24T21:50:23.179Z,38.40
2018-03-24T21:52:50.052Z,41.63
2018-03-24T21:55:16.850Z,28.97
2018-03-24T21:57:43.663Z,32.23
2018-03-24T22:00:10.464Z,41.00
2018-03-24T22:02:37.283Z,35.30
2018-03-24T22:05:04.185Z,39.23
2018-03-24T22:07:30.963Z,41.73
2018-03-24T22:09:57.761Z,40.70
2018-03-24T22:12:24.575Z,45.50
2018-03-24T22:14:51.649Z,36.87
2018-03-24T22:17:18.539Z,39.70
2018-03-24T22:19:45.328Z,39.03
2018-03-24T22:22:12.167Z,42.70
2018-03-24T22:24:39.032Z,38.53
2018-03-24T22:27:05.840Z,37.57
2018-03-24T22:29:32.704Z,41.23
2018-03-24T22:31:59.491Z,46.03
2018-03-24T22:34:26.356Z,33.47
2018-03-24T22:36:53.175Z,42.00
2018-03-24T22:39:20.025Z,43.33
2018-03-24T22:41:46.862Z,46.20
2018-03-24T22:44:13.771Z,40.97
2018-03-24T22:46:40.559Z,50.00
2018-03-24T22:49:08.396Z,43.53
2018-03-24T22:51:36.982Z,45.93
2018-03-24T22:54:03.809Z,40.30
2018-03-24T22:56:30.579Z,42.80
2018-03-24T22:58:57.399Z,40.67
2018-03-24T23:01:24.373Z,43.27
2018-03-24T23:03:51.170Z,47.50
2018-03-24T23:06:17.950Z,33.17
2018-03-24T23:08:44.811Z,39.10
2018-03-24T23:11:11.635Z,35.87
2018-03-24T23:13:38.437Z,33.67
2018-03-24T23:16:05.241Z,35.37
2018-03-24T23:18:32.045Z,30.47
2018-03-24T23:20:58.844Z,29.27
2018-03-24T23:23:25.642Z,27.73
2018-03-24T23:25:52.426Z,23.83
2018-03-24T23:28:19.207Z,24.17
